createdAt,value
2019-03-24T00:02:49.338Z,40.52
2019-03-24T00:05:34.627Z,43.33
2019-03-24T00:08:07.451Z,42.13
2019-03-24T00:10:51.604Z,45.88
2019-03-24T00:13:43.217Z,43.17
2019-03-24T00:16:28.048Z,42.53
2019-03-24T00:19:19.729Z,42.67
2019-03-24T00:22:03.995Z,42.75
2019-03-24T00:24:55.651Z,42.38
2019-03-24T00:27:39.753Z,43.80
2019-03-24T00:30:31.752Z,44.13
2019-03-24T00:33:15.765Z,43.00
2019-03-24T00:36:00.107Z,41.02
2019-03-24T00:38:51.659Z,43.83
2019-03-24T00:41:35.689Z,44.65
2019-03-24T00:44:27.312Z,44.45
2019-03-24T00:47:11.854Z,43.95
2019-03-24T00:50:03.784Z,45.15
2019-03-24T00:52:36.594Z,42.05
2019-03-24T00:55:28.246Z,43.13
2019-03-24T00:58:12.233Z,46.83
2019-03-24T01:01:03.917Z,44.88
2019-03-24T01:03:48.126Z,44.70
2019-03-24T01:06:39.850Z,43.92
2019-03-24T01:09:24.303Z,43.28
2019-03-24T01:12:15.958Z,44.03
2019-03-24T01:14:59.614Z,45.88
2019-03-24T01:17:51.671Z,45.90
2019-03-24T01:20:35.731Z,47.50
2019-03-24T01:23:27.505Z,44.58
2019-03-24T01:26:11.791Z,44.30
2019-03-24T01:29:03.467Z,41.85
2019-03-24T01:31:47.881Z,46.37
2019-03-24T01:34:39.494Z,42.35
2019-03-24T01:37:23.307Z,45.20
2019-03-24T01:40:15.081Z,46.90
2019-03-24T01:42:59.737Z,45.50
2019-03-24T01:45:58.558Z,44.58
2019-03-24T01:48:43.384Z,45.73
2019-03-24T01:51:34.971Z,44.95
2019-03-24T01:54:18.774Z,43.33
2019-03-24T01:57:10.502Z,43.78
2019-03-24T01:59:55.320Z,44.95
2019-03-24T02:02:46.991Z,44.18
2019-03-24T02:05:31.209Z,47.08
2019-03-24T02:08:22.966Z,46.35
2019-03-24T02:11:06.967Z,48.55
2019-03-24T02:13:50.711Z,44.67
2019-03-24T02:16:42.394Z,46.25
2019-03-24T02:19:26.643Z,44.58
2019-03-24T02:22:18.308Z,44.73
2019-03-24T02:25:02.096Z,44.05
2019-03-24T02:27:53.715Z,44.27
2019-03-24T02:30:37.918Z,45.23
2019-03-24T02:33:29.619Z,46.68
2019-03-24T02:36:14.174Z,47.75
2019-03-24T02:42:21.935Z,43.80
2019-03-24T02:45:07.185Z,45.35
2019-03-24T02:47:51.354Z,46.95
2019-03-24T02:50:35.385Z,45.75
2019-03-24T02:53:27.167Z,45.58
2019-03-24T02:56:11.327Z,45.08
2019-03-24T02:59:03.117Z,43.02
2019-03-24T03:01:47.627Z,46.02
2019-03-24T03:04:39.687Z,42.30
2019-03-24T03:07:24.221Z,40.98
2019-03-24T03:10:16.103Z,45.28
2019-03-24T03:13:00.271Z,45.80
2019-03-24T03:15:52.050Z,44.18
2019-03-24T03:18:36.392Z,43.38
2019-03-24T03:21:28.248Z,43.78
2019-03-24T03:24:12.247Z,43.35
2019-03-24T03:27:04.985Z,44.50
2019-03-24T03:29:50.120Z,46.85
2019-03-24T03:32:41.925Z,44.25
2019-03-24T03:35:25.780Z,44.55
2019-03-24T03:38:17.562Z,46.10
2019-03-24T03:41:01.506Z,45.03
2019-03-24T03:43:53.301Z,43.85
2019-03-24T03:46:37.241Z,45.25
2019-03-24T03:49:29.308Z,41.98
2019-03-24T03:52:14.193Z,44.03
2019-03-24T03:55:06.499Z,43.70
2019-03-24T03:57:50.431Z,43.08
2019-03-24T04:00:42.234Z,48.10
2019-03-24T04:03:26.045Z,43.52
2019-03-24T04:06:10.075Z,46.25
2019-03-24T04:09:01.895Z,42.85
2019-03-24T04:11:45.972Z,45.23
2019-03-24T04:14:37.736Z,43.87
2019-03-24T04:17:23.513Z,43.05
2019-03-24T04:20:15.314Z,45.65
2019-03-24T04:22:59.645Z,44.83
2019-03-24T04:25:51.402Z,42.35
2019-03-24T04:28:35.553Z,44.33
2019-03-24T04:31:27.332Z,44.33
2019-03-24T04:34:11.939Z,41.48
2019-03-24T04:37:04.119Z,43.33
2019-03-24T04:39:48.123Z,43.63
2019-03-24T04:42:31.044Z,40.78
2019-03-24T04:45:14.981Z,42.75
2019-03-24T04:48:06.787Z,42.93
2019-03-24T04:50:50.622Z,44.40
2019-03-24T04:53:34.418Z,47.65
2019-03-24T04:56:26.191Z,43.08
2019-03-24T04:59:10.248Z,42.80
2019-03-24T05:02:02.039Z,45.30
2019-03-24T05:04:47.027Z,40.80
2019-03-24T05:07:39.123Z,45.28
2019-03-24T05:10:26.361Z,41.60
2019-03-24T05:13:18.136Z,42.93
2019-03-24T05:16:02.309Z,39.55
2019-03-24T05:18:46.343Z,41.05
2019-03-24T05:21:38.101Z,41.37
2019-03-24T05:24:22.020Z,38.30
2019-03-24T05:27:13.790Z,40.45
2019-03-24T05:29:57.896Z,40.75
2019-03-24T05:32:49.920Z,41.15
2019-03-24T05:35:34.292Z,39.05
2019-03-24T05:38:26.077Z,39.20
2019-03-24T05:43:53.142Z,39.42
2019-03-24T05:46:44.944Z,40.03
2019-03-24T05:49:28.879Z,39.00
2019-03-24T05:52:20.665Z,38.50
2019-03-24T05:55:05.808Z,41.90
2019-03-24T05:57:57.651Z,41.70
2019-03-24T06:00:41.305Z,39.27
2019-03-24T06:03:33.097Z,41.83
2019-03-24T06:06:17.595Z,43.13
2019-03-24T06:09:09.401Z,40.95
2019-03-24T06:11:54.205Z,44.65
2019-03-24T06:14:45.980Z,40.85
2019-03-24T06:17:30.580Z,39.92
2019-03-24T06:20:22.357Z,40.50
2019-03-24T06:23:06.770Z,37.88
2019-03-24T06:25:58.561Z,42.13
2019-03-24T06:28:42.707Z,41.55
2019-03-24T06:31:34.494Z,40.08
2019-03-24T06:34:18.642Z,41.90
2019-03-24T06:37:10.401Z,43.83
2019-03-24T06:39:43.329Z,40.95
2019-03-24T06:42:35.111Z,42.25
2019-03-24T06:45:27.942Z,45.92
2019-03-24T06:47:58.126Z,43.87
2019-03-24T06:50:59.475Z,44.18
2019-03-24T06:53:51.246Z,44.50
2019-03-24T06:56:35.498Z,46.20
2019-03-24T06:59:27.263Z,43.10
2019-03-24T07:02:11.340Z,45.38
2019-03-24T07:05:03.300Z,46.58
2019-03-24T07:07:47.083Z,46.33
2019-03-24T07:10:38.866Z,44.08
2019-03-24T07:13:23.291Z,43.05
2019-03-24T07:16:15.101Z,47.40
2019-03-24T07:19:00.161Z,44.70
2019-03-24T07:21:45.209Z,43.80
2019-03-24T07:24:37.058Z,51.28
2019-03-24T07:27:21.311Z,47.03
2019-03-24T07:30:13.075Z,46.85
2019-03-24T07:32:56.962Z,46.48
2019-03-24T07:35:48.772Z,47.83
2019-03-24T07:38:32.834Z,45.25
2019-03-24T07:41:17.125Z,50.75
2019-03-24T07:44:01.608Z,47.55
2019-03-24T07:46:46.441Z,46.35
2019-03-24T07:49:19.392Z,49.58
2019-03-24T07:52:04.073Z,46.98
2019-03-24T07:54:55.836Z,50.80
2019-03-24T07:57:40.430Z,48.60
2019-03-24T08:00:51.052Z,47.93
2019-03-24T08:03:35.308Z,48.23
2019-03-24T08:06:27.092Z,51.63
2019-03-24T08:09:11.525Z,48.38
2019-03-24T08:12:03.357Z,51.45
2019-03-24T08:14:47.761Z,48.65
2019-03-24T08:17:39.597Z,48.75
2019-03-24T08:20:23.665Z,48.87
2019-03-24T08:23:15.828Z,48.58
2019-03-24T08:26:00.372Z,47.48
2019-03-24T08:28:53.195Z,50.00
2019-03-24T08:31:36.053Z,47.67
2019-03-24T08:34:27.810Z,47.53
2019-03-24T08:37:11.800Z,50.98
2019-03-24T08:40:03.999Z,54.35
2019-03-24T08:42:47.987Z,51.80
2019-03-24T08:45:39.822Z,51.25
2019-03-24T08:48:23.611Z,49.77
2019-03-24T08:51:08.426Z,50.38
2019-03-24T08:54:00.246Z,51.95
2019-03-24T08:56:44.518Z,53.23
2019-03-24T08:59:17.550Z,49.70
2019-03-24T09:02:01.869Z,52.17
2019-03-24T09:04:53.656Z,48.33
2019-03-24T09:07:37.965Z,51.90
2019-03-24T09:10:32.514Z,54.25
2019-03-24T09:13:17.011Z,54.58
2019-03-24T09:16:08.864Z,50.65
2019-03-24T09:18:53.376Z,54.40
2019-03-24T09:21:45.225Z,51.85
2019-03-24T09:24:29.549Z,52.98
2019-03-24T09:27:15.341Z,54.58
2019-03-24T09:33:52.049Z,53.90
2019-03-24T09:36:36.740Z,54.40
2019-03-24T09:39:21.236Z,52.10
2019-03-24T09:42:13.058Z,51.37
2019-03-24T09:44:57.499Z,53.20
2019-03-24T09:47:49.371Z,55.73
2019-03-24T09:50:33.915Z,59.40
2019-03-24T09:53:26.122Z,56.13
2019-03-24T09:56:10.165Z,56.95
2019-03-24T09:58:54.269Z,56.25
2019-03-24T10:01:46.018Z,56.33
2019-03-24T10:04:30.640Z,57.03
2019-03-24T10:07:22.444Z,55.35
2019-03-24T10:10:07.899Z,57.15
2019-03-24T10:12:59.702Z,56.08
2019-03-24T10:15:44.851Z,57.45
2019-03-24T10:18:36.747Z,57.85
2019-03-24T10:21:21.650Z,55.78
2019-03-24T10:24:13.486Z,53.38
2019-03-24T10:26:56.277Z,53.38
2019-03-24T10:29:48.086Z,53.08
2019-03-24T10:32:32.153Z,55.95
2019-03-24T10:35:15.889Z,57.17
2019-03-24T10:38:07.695Z,54.53
2019-03-24T10:40:51.752Z,57.00
2019-03-24T10:43:43.574Z,55.12
2019-03-24T10:46:27.455Z,58.20
2019-03-24T10:49:24.796Z,59.08
2019-03-24T10:52:11.940Z,55.17
2019-03-24T10:55:03.858Z,52.95
2019-03-24T10:57:37.064Z,54.60
2019-03-24T11:00:47.962Z,57.20
2019-03-24T11:03:32.665Z,54.48
2019-03-24T11:06:24.499Z,54.48
2019-03-24T11:09:08.674Z,56.40
2019-03-24T11:11:52.599Z,55.30
2019-03-24T11:14:44.400Z,54.95
2019-03-24T11:17:29.174Z,50.40
2019-03-24T11:20:20.977Z,52.95
2019-03-24T11:23:04.798Z,51.18
2019-03-24T11:25:56.669Z,51.40
2019-03-24T11:28:41.552Z,48.73
2019-03-24T11:31:33.154Z,50.33
2019-03-24T11:34:22.775Z,50.85
2019-03-24T11:37:14.447Z,52.70
2019-03-24T11:39:58.884Z,46.68
2019-03-24T11:42:50.713Z,47.43
2019-03-24T11:45:36.075Z,48.35
2019-03-24T11:48:27.751Z,50.70
2019-03-24T11:51:11.504Z,47.35
2019-03-24T11:54:03.181Z,48.68
2019-03-24T11:56:47.845Z,51.05
2019-03-24T11:59:39.907Z,49.93
2019-03-24T12:02:23.688Z,50.15
2019-03-24T12:05:07.502Z,50.90
2019-03-24T12:07:51.013Z,46.10
2019-03-24T12:10:34.750Z,46.00
2019-03-24T12:13:27.625Z,49.42
2019-03-24T12:16:12.067Z,49.67
2019-03-24T12:19:04.138Z,51.77
2019-03-24T12:21:49.036Z,47.20
2019-03-24T12:24:40.663Z,47.55
2019-03-24T12:27:25.130Z,47.95
2019-03-24T12:30:16.772Z,47.85
2019-03-24T12:33:01.306Z,48.10
2019-03-24T12:35:52.922Z,46.63
2019-03-24T12:38:38.437Z,47.30
2019-03-24T12:41:30.170Z,47.10
2019-03-24T12:44:15.632Z,47.23
2019-03-24T12:47:00.255Z,45.88
2019-03-24T12:49:44.500Z,47.25
2019-03-24T12:52:36.226Z,47.40
2019-03-24T12:55:20.610Z,46.13
2019-03-24T12:58:12.463Z,46.68
2019-03-24T13:00:57.869Z,50.70
2019-03-24T13:03:42.040Z,45.75
2019-03-24T13:06:34.088Z,45.20
2019-03-24T13:09:08.929Z,45.47
2019-03-24T13:11:41.673Z,41.90
2019-03-24T13:14:27.209Z,43.70
2019-03-24T13:17:18.895Z,42.88
2019-03-24T13:20:02.711Z,44.90
2019-03-24T13:22:54.423Z,42.23
2019-03-24T13:25:38.502Z,42.78
2019-03-24T13:28:30.143Z,44.58
2019-03-24T13:31:14.856Z,42.93
2019-03-24T13:34:06.583Z,42.40
2019-03-24T13:36:50.897Z,44.20
2019-03-24T13:39:42.528Z,43.00
2019-03-24T13:42:27.324Z,42.20
2019-03-24T13:45:18.967Z,42.27
2019-03-24T13:48:02.801Z,42.48
2019-03-24T13:50:54.664Z,41.85
2019-03-24T13:53:38.993Z,41.90
2019-03-24T13:56:30.722Z,44.90
2019-03-24T13:59:15.299Z,42.75
2019-03-24T14:05:17.110Z,42.35
2019-03-24T14:08:08.730Z,40.80
2019-03-24T14:10:52.930Z,40.30
2019-03-24T14:13:44.709Z,43.30
2019-03-24T14:16:28.903Z,38.50
2019-03-24T14:19:20.826Z,40.55
2019-03-24T14:22:04.856Z,40.73
2019-03-24T14:24:56.730Z,42.15
2019-03-24T14:27:41.075Z,43.85
2019-03-24T14:30:51.670Z,40.95
2019-03-24T14:33:35.631Z,40.65
2019-03-24T14:36:08.633Z,41.13
2019-03-24T14:39:00.616Z,41.18
2019-03-24T14:41:45.956Z,42.15
2019-03-24T14:44:29.789Z,41.90
2019-03-24T14:47:21.783Z,39.65
2019-03-24T14:50:05.887Z,45.43
2019-03-24T14:52:57.686Z,45.83
2019-03-24T14:55:42.360Z,41.80
2019-03-24T14:58:34.078Z,44.10
2019-03-24T15:01:21.538Z,41.77
2019-03-24T15:04:13.713Z,42.90
2019-03-24T15:07:05.609Z,42.20
2019-03-24T15:09:50.488Z,42.03
2019-03-24T15:12:43.874Z,42.03
2019-03-24T15:15:27.448Z,43.75
2019-03-24T15:18:11.980Z,40.80
2019-03-24T15:21:06.427Z,42.38
2019-03-24T15:23:50.731Z,45.35
2019-03-24T15:26:42.560Z,42.25
2019-03-24T15:29:27.990Z,42.58
2019-03-24T15:32:19.743Z,41.45
2019-03-24T15:35:04.142Z,42.10
2019-03-24T15:37:48.499Z,43.30
2019-03-24T15:40:41.165Z,41.92
2019-03-24T15:43:25.718Z,44.88
2019-03-24T15:49:28.273Z,42.30
2019-03-24T15:52:20.205Z,42.53
2019-03-24T15:55:05.670Z,40.78
2019-03-24T15:57:49.416Z,40.40
2019-03-24T16:00:52.217Z,40.85
2019-03-24T16:03:36.486Z,41.08
2019-03-24T16:06:28.157Z,38.35
2019-03-24T16:09:12.255Z,43.30
2019-03-24T16:12:04.063Z,43.95
2019-03-24T16:14:48.310Z,42.17
2019-03-24T16:17:33.659Z,41.08
2019-03-24T16:20:25.422Z,41.35
2019-03-24T16:23:09.192Z,41.48
2019-03-24T16:26:00.990Z,39.95
2019-03-24T16:28:45.187Z,40.70
2019-03-24T16:31:36.679Z,39.95
2019-03-24T16:34:20.971Z,39.78
2019-03-24T16:37:12.918Z,37.53
2019-03-24T16:39:56.941Z,36.53
2019-03-24T16:42:40.710Z,37.13
2019-03-24T16:45:32.368Z,35.70
2019-03-24T16:48:16.630Z,37.23
2019-03-24T16:51:08.340Z,36.85
2019-03-24T16:53:52.701Z,36.77
2019-03-24T16:56:36.733Z,37.90
2019-03-24T16:59:20.870Z,36.88
2019-03-24T17:02:05.439Z,38.20
2019-03-24T17:04:58.061Z,38.00
2019-03-24T17:07:42.681Z,39.18
2019-03-24T17:10:34.331Z,38.05
2019-03-24T17:13:17.968Z,38.30
2019-03-24T17:16:10.002Z,38.00
2019-03-24T17:18:54.393Z,36.60
2019-03-24T17:21:50.188Z,38.35
2019-03-24T17:24:50.415Z,38.00
2019-03-24T17:27:42.116Z,38.15
2019-03-24T17:30:26.287Z,37.08
2019-03-24T17:33:17.961Z,37.70
2019-03-24T17:36:02.252Z,39.50
2019-03-24T17:38:53.780Z,38.25
2019-03-24T17:41:39.208Z,38.23
2019-03-24T17:44:31.938Z,38.85
2019-03-24T17:47:16.015Z,39.88
2019-03-24T17:50:09.214Z,37.38
2019-03-24T17:52:55.332Z,37.55
2019-03-24T17:55:39.708Z,38.50
2019-03-24T17:58:31.522Z,38.25
2019-03-24T18:01:15.979Z,38.23
2019-03-24T18:04:07.618Z,39.25
2019-03-24T18:06:51.857Z,39.90
2019-03-24T18:09:43.667Z,40.03
2019-03-24T18:12:16.464Z,35.30
2019-03-24T18:18:24.307Z,36.23
2019-03-24T18:21:09.365Z,37.17
2019-03-24T18:23:53.586Z,37.50
2019-03-24T18:26:45.252Z,37.50
2019-03-24T18:29:28.148Z,36.93
2019-03-24T18:32:19.880Z,36.48
2019-03-24T18:34:52.588Z,35.58
2019-03-24T18:37:44.499Z,35.05
2019-03-24T18:40:28.706Z,34.83
2019-03-24T18:43:01.514Z,36.65
2019-03-24T18:45:34.321Z,37.80
2019-03-24T18:48:08.054Z,36.08
2019-03-24T18:50:53.375Z,35.65
2019-03-24T18:53:45.169Z,35.75
2019-03-24T18:56:30.257Z,37.78
2019-03-24T18:59:03.103Z,33.35
2019-03-24T19:01:47.630Z,34.80
2019-03-24T19:04:39.398Z,36.10
2019-03-24T19:07:23.195Z,36.45
2019-03-24T19:10:14.954Z,32.63
2019-03-24T19:12:47.651Z,34.25
2019-03-24T19:15:20.437Z,34.67
2019-03-24T19:17:53.179Z,37.10
2019-03-24T19:20:25.828Z,34.33
2019-03-24T19:22:58.852Z,34.95
2019-03-24T19:25:31.665Z,37.10
2019-03-24T19:28:04.621Z,34.08
2019-03-24T19:30:57.766Z,36.28
2019-03-24T19:36:49.465Z,35.45
2019-03-24T19:39:41.182Z,42.13
2019-03-24T19:42:25.947Z,32.23
2019-03-24T19:45:17.671Z,33.28
2019-03-24T19:48:01.952Z,33.90
2019-03-24T19:50:46.720Z,35.30
2019-03-24T19:53:30.186Z,31.70
2019-03-24T19:56:15.268Z,31.30
2019-03-24T19:59:07.155Z,31.60
2019-03-24T20:01:51.739Z,32.53
2019-03-24T20:04:35.894Z,30.00
2019-03-24T20:07:27.836Z,30.97
2019-03-24T20:10:13.551Z,31.60
2019-03-24T20:13:05.425Z,31.80
2019-03-24T20:15:49.656Z,33.45
2019-03-24T20:18:41.387Z,33.05
2019-03-24T20:21:25.238Z,32.50
2019-03-24T20:24:16.960Z,31.87
2019-03-24T20:27:01.344Z,32.90
2019-03-24T20:29:45.766Z,29.77
2019-03-24T20:32:31.261Z,29.07
2019-03-24T20:35:15.076Z,30.80
2019-03-24T20:38:10.199Z,30.77
2019-03-24T20:40:54.493Z,30.35
2019-03-24T20:44:01.718Z,29.45
2019-03-24T20:46:48.456Z,29.48
2019-03-24T20:49:34.987Z,30.43
2019-03-24T20:52:26.803Z,31.50
2019-03-24T20:55:11.159Z,32.93
2019-03-24T20:57:55.590Z,30.30
2019-03-24T21:00:39.943Z,31.62
2019-03-24T21:03:31.654Z,31.33
2019-03-24T21:06:14.577Z,30.35
2019-03-24T21:09:08.164Z,30.23
2019-03-24T21:11:52.565Z,29.00
2019-03-24T21:14:47.266Z,31.23
2019-03-24T21:17:32.505Z,28.98
2019-03-24T21:20:24.330Z,29.07
2019-03-24T21:23:07.396Z,25.55
2019-03-24T21:25:59.119Z,26.20
2019-03-24T21:28:43.591Z,24.92
2019-03-24T21:31:35.911Z,25.75
2019-03-24T21:34:20.181Z,24.02
2019-03-24T21:37:12.607Z,24.65
2019-03-24T21:39:45.462Z,24.85
2019-03-24T21:42:37.194Z,24.70
2019-03-24T21:45:21.981Z,26.50
2019-03-24T21:48:05.704Z,24.95
2019-03-24T21:50:50.693Z,24.52
2019-03-24T21:53:42.822Z,25.20
2019-03-24T21:56:26.737Z,24.45
2019-03-24T21:59:18.671Z,25.50
2019-03-24T22:02:03.150Z,25.88
2019-03-24T22:04:56.024Z,26.50
2019-03-24T22:07:45.979Z,25.27
2019-03-24T22:10:37.762Z,23.38
2019-03-24T22:13:22.427Z,23.92
2019-03-24T22:16:14.355Z,24.85
2019-03-24T22:18:58.293Z,21.17
2019-03-24T22:21:50.121Z,21.80
2019-03-24T22:24:34.273Z,22.05
2019-03-24T22:27:25.990Z,21.20
2019-03-24T22:30:11.025Z,19.37
2019-03-24T22:33:02.552Z,19.02
2019-03-24T22:35:47.256Z,20.72
2019-03-24T22:38:39.055Z,19.37
2019-03-24T22:41:23.190Z,19.45
2019-03-24T22:44:15.371Z,18.35
2019-03-24T22:46:59.513Z,20.77
2019-03-24T22:49:51.479Z,19.45
2019-03-24T22:52:35.989Z,22.25
2019-03-24T22:55:27.764Z,20.90
2019-03-24T22:58:12.314Z,22.65
2019-03-24T23:01:04.488Z,24.92
2019-03-24T23:03:50.815Z,22.48
2019-03-24T23:06:42.555Z,23.35
2019-03-24T23:09:26.613Z,26.97
2019-03-24T23:12:18.334Z,25.90
2019-03-24T23:15:02.229Z,26.68
2019-03-24T23:17:55.027Z,29.15
2019-03-24T23:20:39.392Z,28.02
2019-03-24T23:23:31.155Z,28.77
2019-03-24T23:26:14.938Z,28.42
2019-03-24T23:29:06.759Z,27.20
2019-03-24T23:31:53.447Z,28.12
2019-03-24T23:34:45.165Z,27.40
2019-03-24T23:37:28.757Z,25.23
2019-03-24T23:40:20.425Z,24.60
2019-03-24T23:43:04.330Z,24.65
2019-03-24T23:45:48.075Z,22.50
2019-03-24T23:48:32.132Z,21.82
2019-03-24T23:51:17.620Z,22.42
2019-03-24T23:54:09.388Z,22.35
2019-03-24T23:56:53.257Z,22.73
2019-03-24T23:59:45.390Z,22.40
